Wolf, WY (82844)

8:45 AM MDT on August 28, 2014 (GMT -0600)
KWYSHERI2 | Change Station
CLOSE
Current Station
Personal Weather Station
Location: Sheridan, WY
Elevation: 3828 ft
Nearby Weather Stations

Elev 3828 ft 44.81 °N, 106.98 °W | Updated 2 minutes ago

Clear
Clear
66.9 °F
Feels Like 66.9 °F
N
0.0
Wind Variable Wind from SSE
Gusts 0.0 mph

Today
High -- | Low -- °F
--% Chance of Precip.
Yesterday
High -- | Low -- °F
Precip. -- in
6:26 AM 7:52 PM
Waxing Crescent, 8% visible
Pressure 29.97 in
Visibility 10.0 miles
Clouds Clear
Dew Point 47 °F
Humidity 49%
Rainfall 0.00 in
Snow Depth Not available.
UV 1 out of 12
Pollen 8.50 out of 12
Air Quality Not available.
Flu Activity Not available.
METAR KSHR 281353Z AUTO 00000KT 10SM CLR 17/09 A3006 RMK AO2 SLP148 T01670094

More Conditions Fewer Conditions

Pressure 29.97 in
Visibility 10.0 miles
Clouds Clear
Dew Point 47 °F
Humidity 49%
Rainfall 0.00 in
Snow Depth Not available.
UV 1 out of 12
Pollen 8.50 out of 12
Air Quality Not available.
Flu Activity Not available.
METAR KSHR 281353Z AUTO 00000KT 10SM CLR 17/09 A3006 RMK AO2 SLP148 T01670094

More Conditions Fewer Conditions

10-Day Weather Forecast

Almanac

Astronomy

Aug. 28, 2014 Rise Set
Actual Time 6:26 AM MDT 7:52 PM MDT
Civil Twilight 5:55 AM MDT 8:23 PM MDT
Nautical Twilight 5:18 AM MDT 8:59 PM MDT
Astronomical Twilight 4:39 AM MDT 9:39 PM MDT
Moon 9:30 AM MDT 9:08 PM MDT
Length of Visible Light 14h 27m
Length of Day
13h 26m
Tomorrow will be 2m 58s shorter.
Waxing Crescent, 8% of the Moon is Illuminated
Today
Waxing Crescent
Sep 2
First Quarter
Sep 8
Full
Sep 15
Last Quarter
Sep 24
New

Today's Extremes

State Highs State Lows

Community

WunderPhotos

Upload Photos

1,747,970 photos uploaded!

Nearby

Snow Depth

Station Depth Elevation
Sylvan Lake 0 in 8420 ft
Casper Mountain 1 in 7850 ft
Reno Hill 0 in 8500 ft
Base Camp 0 in 7030 ft
Lewis Lake Divide 0 in 7850 ft

Earthquake Activity

City Distance Mag. Time & Date
No recent earthquake activity has been reported nearby.
Minimum magnitude displayed is 2.5.

Coastal Water Temperatures

Place Temperature
No Stations Reporting

Nearby Weather Stations